Terminal Aerodrome Forecast
Issued by NWS Sioux Falls, SD

Home | Current Version | Previous Version | Graphics & Text | Print | Product List | Glossary On
Versions: 1 2 3 4 5 6 7 8 9 10 11 12 13 14 15 16
992
FTUS43 KFSD 221132
TAFFSD
TAF
KFSD 221132Z 2212/2312 VRB04KT P6SM FEW012 SCT250
     FM221400 30005KT P6SM FEW250
     FM221800 33008KT P6SM FEW250
     FM230300 32004KT P6SM FEW250=

USA.gov is the U.S. government's official web portal to all federal, state and local government web resources and services.